createdAt,value
2018-09-22T00:00:31.242Z,13.80
2018-09-22T00:03:00.442Z,13.70
2018-09-22T00:08:30.233Z,13.80
2018-09-22T00:10:59.381Z,13.80
2018-09-22T00:13:28.549Z,13.80
2018-09-22T00:15:57.729Z,14.00
2018-09-22T00:18:26.874Z,14.00
2018-09-22T00:20:56.050Z,13.80
2018-09-22T00:23:25.270Z,13.70
2018-09-22T00:25:54.433Z,13.70
2018-09-22T00:28:23.718Z,13.70
2018-09-22T00:30:52.922Z,13.70
2018-09-22T00:36:22.442Z,13.60
2018-09-22T00:38:51.608Z,13.70
2018-09-22T00:41:20.763Z,13.50
2018-09-22T00:43:50.158Z,13.80
2018-09-22T00:46:19.530Z,13.60
2018-09-22T00:48:48.706Z,13.60
2018-09-22T00:51:17.885Z,13.60
2018-09-22T00:53:47.051Z,13.70
2018-09-22T00:56:16.207Z,13.70
2018-09-22T00:58:45.393Z,13.60
2018-09-22T01:01:14.549Z,13.70
2018-09-22T01:03:43.698Z,13.60
2018-09-22T01:06:12.940Z,13.70
2018-09-22T01:08:42.259Z,13.60
2018-09-22T01:11:11.407Z,13.60
2018-09-22T01:13:40.584Z,13.70
2018-09-22T01:20:15.654Z,13.60
2018-09-22T01:22:44.837Z,14.20
2018-09-22T01:25:13.997Z,13.80
2018-09-22T01:27:43.185Z,13.70
2018-09-22T01:30:12.351Z,13.60
2018-09-22T01:34:11.071Z,13.50
2018-09-22T01:36:40.764Z,13.70
2018-09-22T01:39:11.009Z,13.80
2018-09-22T01:41:40.888Z,13.80
2018-09-22T01:44:10.182Z,13.60
2018-09-22T01:46:39.414Z,13.70
2018-09-22T01:49:08.577Z,13.70
2018-09-22T01:51:37.724Z,13.50
2018-09-22T01:54:06.598Z,13.50
2018-09-22T01:56:35.732Z,13.50
2018-09-22T01:59:12.948Z,13.50
2018-09-22T02:01:42.114Z,13.50
2018-09-22T02:04:11.256Z,13.50
2018-09-22T02:06:40.437Z,13.50
2018-09-22T02:09:10.550Z,13.50
2018-09-22T02:11:39.852Z,13.60
2018-09-22T02:14:09.023Z,13.50
2018-09-22T02:16:38.198Z,13.50
2018-09-22T02:19:07.381Z,13.50
2018-09-22T02:21:36.609Z,13.40
2018-09-22T02:24:05.773Z,13.50
2018-09-22T02:26:34.965Z,13.50
2018-09-22T02:29:04.117Z,13.40
2018-09-22T02:31:33.717Z,13.50
2018-09-22T02:34:02.896Z,13.40
2018-09-22T02:36:32.049Z,13.40
2018-09-22T02:39:01.189Z,13.40
2018-09-22T02:41:30.373Z,13.40
2018-09-22T02:43:59.513Z,13.40
2018-09-22T02:46:28.748Z,13.60
2018-09-22T02:48:57.925Z,13.40
2018-09-22T02:51:27.209Z,13.50
2018-09-22T02:53:56.366Z,13.80
2018-09-22T02:56:25.679Z,13.50
2018-09-22T02:58:54.838Z,13.50
2018-09-22T03:01:24.036Z,13.40
2018-09-22T03:03:53.200Z,13.70
2018-09-22T03:06:22.366Z,13.50
2018-09-22T03:09:11.796Z,13.50
2018-09-22T03:11:40.991Z,13.50
2018-09-22T03:14:10.465Z,13.50
2018-09-22T03:16:40.106Z,13.70
2018-09-22T03:19:09.272Z,13.80
2018-09-22T03:21:38.528Z,13.70
2018-09-22T03:24:07.697Z,13.60
2018-09-22T03:26:36.849Z,13.60
2018-09-22T03:29:06.265Z,13.60
2018-09-22T03:31:35.457Z,13.70
2018-09-22T03:34:04.629Z,13.70
2018-09-22T03:36:33.840Z,13.60
2018-09-22T03:39:03.061Z,13.50
2018-09-22T03:41:32.227Z,13.80
2018-09-22T03:44:01.373Z,13.70
2018-09-22T03:46:30.593Z,13.80
2018-09-22T03:48:59.761Z,13.60
2018-09-22T03:51:28.936Z,13.60
2018-09-22T03:53:58.113Z,13.90
2018-09-22T03:56:27.318Z,13.80
2018-09-22T03:58:56.465Z,13.90
2018-09-22T04:01:25.650Z,13.80
2018-09-22T04:03:54.825Z,13.70
2018-09-22T04:06:23.986Z,13.70
2018-09-22T04:08:53.225Z,13.60
2018-09-22T04:11:22.366Z,13.60
2018-09-22T04:13:51.598Z,13.50
2018-09-22T04:16:20.798Z,13.60
2018-09-22T04:19:11.208Z,13.60
2018-09-22T04:21:40.397Z,13.60
2018-09-22T04:24:14.696Z,13.60
2018-09-22T04:26:43.897Z,13.60
2018-09-22T04:29:13.073Z,13.50
2018-09-22T04:31:42.420Z,13.50
2018-09-22T04:34:11.866Z,13.40
2018-09-22T04:36:41.104Z,13.50
2018-09-22T04:39:10.955Z,13.60
2018-09-22T04:41:41.642Z,13.50
2018-09-22T04:44:10.887Z,13.50
2018-09-22T04:46:40.041Z,13.50
2018-09-22T04:49:09.221Z,13.40
2018-09-22T04:51:38.391Z,13.50
2018-09-22T04:54:07.549Z,13.30
2018-09-22T04:56:37.323Z,13.40
2018-09-22T04:59:06.535Z,13.60
2018-09-22T05:01:35.694Z,13.30
2018-09-22T05:04:04.864Z,13.30
2018-09-22T05:06:34.054Z,13.40
2018-09-22T05:09:03.223Z,13.50
2018-09-22T05:11:32.489Z,13.40
2018-09-22T05:14:01.849Z,13.40
2018-09-22T05:16:30.994Z,13.50
2018-09-22T05:19:00.192Z,13.40
2018-09-22T05:21:29.378Z,13.30
2018-09-22T05:23:58.522Z,13.40
2018-09-22T05:26:27.706Z,13.30
2018-09-22T05:29:12.970Z,13.30
2018-09-22T05:31:42.173Z,13.20
2018-09-22T05:35:40.790Z,13.20
2018-09-22T05:38:10.009Z,13.30
2018-09-22T05:40:39.161Z,13.40
2018-09-22T05:43:14.725Z,13.40
2018-09-22T05:47:13.320Z,13.20
2018-09-22T05:49:42.509Z,13.20
2018-09-22T05:52:11.742Z,13.40
2018-09-22T05:54:40.884Z,13.50
2018-09-22T05:57:13.904Z,13.20
2018-09-22T05:59:43.108Z,13.50
2018-09-22T06:02:13.602Z,13.40
2018-09-22T06:04:42.766Z,13.40
2018-09-22T06:07:11.934Z,13.50
2018-09-22T06:09:41.231Z,13.40
2018-09-22T06:12:10.323Z,13.60
2018-09-22T06:14:40.274Z,13.90
2018-09-22T06:17:09.501Z,14.20
2018-09-22T06:19:38.664Z,13.70
2018-09-22T06:22:07.963Z,13.80
2018-09-22T06:25:24.782Z,13.70
2018-09-22T06:27:54.134Z,14.00
2018-09-22T06:30:23.293Z,14.10
2018-09-22T06:32:52.500Z,14.20
2018-09-22T06:35:21.665Z,14.30
2018-09-22T06:37:50.869Z,13.80
2018-09-22T06:40:20.391Z,13.80
2018-09-22T06:42:49.554Z,14.00
2018-09-22T06:45:18.765Z,13.90
2018-09-22T06:47:47.985Z,13.90
2018-09-22T06:50:17.267Z,14.00
2018-09-22T06:52:46.430Z,14.10
2018-09-22T06:55:15.604Z,14.00
2018-09-22T06:57:44.754Z,14.30
2018-09-22T07:00:13.897Z,14.30
2018-09-22T07:02:43.117Z,14.30
2018-09-22T07:05:12.278Z,14.20
2018-09-22T07:07:41.437Z,14.40
2018-09-22T07:10:10.630Z,14.40
2018-09-22T07:12:39.824Z,14.40
2018-09-22T07:15:15.902Z,14.30
2018-09-22T07:17:45.063Z,14.40
2018-09-22T07:23:16.481Z,14.60
2018-09-22T07:25:45.832Z,14.70
2018-09-22T07:28:15.031Z,14.70
2018-09-22T07:31:00.845Z,15.00
2018-09-22T07:33:30.119Z,14.90
2018-09-22T07:39:12.484Z,14.70
2018-09-22T07:44:46.266Z,15.20
2018-09-22T07:47:15.478Z,15.10
2018-09-22T07:49:44.749Z,15.00
2018-09-22T07:52:14.058Z,15.10
2018-09-22T07:55:06.508Z,15.10
2018-09-22T07:57:35.861Z,15.30
2018-09-22T08:00:05.606Z,15.20
2018-09-22T08:03:22.940Z,15.20
2018-09-22T08:06:15.198Z,15.30
2018-09-22T08:12:24.316Z,15.40
2018-09-22T08:14:53.517Z,15.30
2018-09-22T08:17:23.040Z,15.40
2018-09-22T08:19:52.436Z,15.50
2018-09-22T08:22:31.605Z,15.40
2018-09-22T08:25:03.190Z,15.20
2018-09-22T08:27:32.827Z,15.20
2018-09-22T08:30:02.110Z,15.20
2018-09-22T08:32:33.383Z,15.50
2018-09-22T08:35:11.447Z,15.60
2018-09-22T08:37:40.665Z,15.40
2018-09-22T08:40:09.852Z,15.50
2018-09-22T08:42:39.015Z,15.50
2018-09-22T08:45:08.263Z,15.60
2018-09-22T08:47:38.162Z,15.70
2018-09-22T08:50:07.611Z,15.60
2018-09-22T08:52:36.803Z,15.70
2018-09-22T08:55:06.110Z,15.40
2018-09-22T08:57:45.332Z,15.30
2018-09-22T09:00:15.006Z,15.30
2018-09-22T09:02:54.838Z,15.40
2018-09-22T09:05:26.133Z,15.60
2018-09-22T09:07:55.854Z,15.90
2018-09-22T09:10:26.181Z,15.80
2018-09-22T09:12:55.699Z,15.70
2018-09-22T09:15:25.026Z,15.80
2018-09-22T09:17:54.349Z,15.70
2018-09-22T09:20:23.568Z,15.30
2018-09-22T09:23:03.005Z,15.60
2018-09-22T09:25:32.198Z,15.70
2018-09-22T09:28:01.487Z,15.80
2018-09-22T09:30:30.686Z,15.70
2018-09-22T09:33:00.494Z,15.90
2018-09-22T09:35:29.670Z,15.60
2018-09-22T09:37:58.881Z,15.70
2018-09-22T09:43:33.810Z,16.10
2018-09-22T09:46:02.959Z,16.10
2018-09-22T09:48:32.319Z,16.30
2018-09-22T09:51:12.605Z,16.10
2018-09-22T09:53:41.770Z,15.70
2018-09-22T09:56:10.986Z,16.00
2018-09-22T09:58:40.166Z,15.90
2018-09-22T10:01:09.361Z,16.40
2018-09-22T10:03:38.566Z,16.30
2018-09-22T10:06:07.855Z,16.40
2018-09-22T10:12:58.265Z,16.50
2018-09-22T10:15:27.417Z,16.50
2018-09-22T10:17:57.004Z,16.70
2018-09-22T10:20:26.194Z,16.40
2018-09-22T10:23:14.402Z,16.40
2018-09-22T10:25:43.597Z,16.30
2018-09-22T10:28:12.825Z,16.20
2018-09-22T10:30:41.981Z,16.10
2018-09-22T10:33:11.271Z,16.10
2018-09-22T10:35:40.430Z,16.20
2018-09-22T10:38:09.622Z,16.10
2018-09-22T10:40:38.824Z,16.40
2018-09-22T10:43:08.301Z,16.60
2018-09-22T10:45:37.704Z,16.60
2018-09-22T10:48:06.879Z,17.10
2018-09-22T10:50:36.054Z,16.90
2018-09-22T10:53:05.269Z,17.10
2018-09-22T10:55:34.415Z,17.20
2018-09-22T10:58:03.584Z,17.20
2018-09-22T11:00:32.737Z,17.20
2018-09-22T11:03:02.002Z,17.10
2018-09-22T11:05:31.161Z,16.70
2018-09-22T11:08:00.378Z,17.10
2018-09-22T11:10:29.629Z,17.10
2018-09-22T11:12:58.856Z,17.50
2018-09-22T11:15:28.019Z,17.40
2018-09-22T11:17:57.719Z,17.20
2018-09-22T11:20:26.872Z,16.80
2018-09-22T11:23:12.918Z,16.90
2018-09-22T11:26:11.398Z,16.70
2018-09-22T11:28:40.618Z,16.60
2018-09-22T11:31:13.585Z,16.90
2018-09-22T11:34:12.265Z,17.10
2018-09-22T11:36:41.554Z,17.10
2018-09-22T11:39:14.380Z,17.10
2018-09-22T11:42:10.824Z,17.20
2018-09-22T11:44:40.009Z,17.10
2018-09-22T11:47:15.358Z,16.90
2018-09-22T11:50:11.390Z,17.20
2018-09-22T11:52:40.676Z,17.10
2018-09-22T11:55:13.621Z,17.20
2018-09-22T12:00:43.225Z,17.20
2018-09-22T12:03:13.856Z,17.30
2018-09-22T12:06:12.554Z,17.60
2018-09-22T12:08:41.792Z,17.60
2018-09-22T12:11:14.354Z,17.20
2018-09-22T12:14:11.163Z,17.40
2018-09-22T12:16:40.333Z,17.60
2018-09-22T12:19:15.533Z,17.40
2018-09-22T12:22:11.219Z,17.40
2018-09-22T12:24:41.513Z,17.40
2018-09-22T12:27:14.311Z,17.40
2018-09-22T12:30:11.090Z,17.60
2018-09-22T12:32:40.262Z,17.60
2018-09-22T12:35:15.630Z,17.40
2018-09-22T12:38:11.299Z,17.20
2018-09-22T12:40:40.556Z,17.40
2018-09-22T12:43:13.497Z,17.60
2018-09-22T12:45:42.866Z,17.60
2018-09-22T12:48:12.017Z,17.90
2018-09-22T12:50:41.186Z,17.70
2018-09-22T12:53:10.401Z,17.80
2018-09-22T12:55:39.559Z,18.00
2018-09-22T13:01:13.649Z,18.00
2018-09-22T13:03:42.823Z,17.50
2018-09-22T13:06:15.144Z,17.50
2018-09-22T13:08:44.301Z,18.00
2018-09-22T13:11:13.538Z,18.00
2018-09-22T13:13:42.730Z,18.00
2018-09-22T13:16:13.366Z,17.90
2018-09-22T13:20:19.113Z,17.80
2018-09-22T13:23:13.482Z,17.80
2018-09-22T13:26:12.437Z,18.60
2018-09-22T13:29:11.517Z,18.30
2018-09-22T13:31:40.665Z,18.10
2018-09-22T13:34:09.827Z,18.40
2018-09-22T13:36:39.073Z,18.10
2018-09-22T13:39:14.564Z,17.90
2018-09-22T13:41:43.804Z,17.70
2018-09-22T13:44:12.953Z,17.70
2018-09-22T13:46:42.162Z,18.10
2018-09-22T13:49:11.312Z,17.90
2018-09-22T13:51:40.581Z,18.10
2018-09-22T13:54:09.845Z,17.80
2018-09-22T13:56:39.010Z,17.70
2018-09-22T13:59:08.160Z,18.10
2018-09-22T14:01:37.379Z,18.20
2018-09-22T14:04:06.706Z,18.20
2018-09-22T14:06:35.881Z,18.00
2018-09-22T14:09:08.845Z,18.10
2018-09-22T14:11:38.093Z,17.70
2018-09-22T14:14:07.631Z,17.80
2018-09-22T14:16:36.861Z,17.90
2018-09-22T14:19:06.031Z,18.10
2018-09-22T14:21:35.227Z,18.30
2018-09-22T14:24:04.430Z,18.00
2018-09-22T14:26:33.596Z,17.80
2018-09-22T14:29:02.789Z,17.90
2018-09-22T14:31:31.953Z,17.80
2018-09-22T14:34:01.107Z,17.60
2018-09-22T14:36:30.289Z,17.70
2018-09-22T14:38:59.892Z,17.70
2018-09-22T14:41:29.208Z,17.60
2018-09-22T14:43:58.383Z,17.60
2018-09-22T14:49:27.414Z,17.70
2018-09-22T14:51:56.666Z,17.60
2018-09-22T14:57:25.824Z,17.60
2018-09-22T14:59:54.989Z,17.50
2018-09-22T15:02:24.165Z,17.60
2018-09-22T15:04:54.043Z,17.50
2018-09-22T15:07:23.218Z,17.40
2018-09-22T15:09:52.398Z,17.30
2018-09-22T15:12:21.658Z,17.50
2018-09-22T15:15:14.478Z,17.40
2018-09-22T15:18:12.530Z,17.20
2018-09-22T15:20:41.738Z,17.30
2018-09-22T15:23:14.598Z,17.30
2018-09-22T15:26:11.078Z,17.20
2018-09-22T15:34:41.342Z,17.30
2018-09-22T15:37:14.104Z,17.20
2018-09-22T15:40:12.634Z,17.70
2018-09-22T15:42:41.994Z,17.20
2018-09-22T15:45:14.817Z,17.10
2018-09-22T15:47:54.129Z,17.40
2018-09-22T15:50:23.356Z,17.60
2018-09-22T15:53:11.914Z,17.50
2018-09-22T15:58:41.162Z,17.20
2018-09-22T16:01:10.462Z,17.40
2018-09-22T16:03:39.628Z,17.40
2018-09-22T16:06:08.832Z,17.50
2018-09-22T16:08:38.004Z,17.50
2018-09-22T16:11:07.327Z,17.60
2018-09-22T16:16:36.493Z,17.50
2018-09-22T16:19:05.912Z,17.20
2018-09-22T16:24:35.800Z,17.00
2018-09-22T16:27:04.982Z,17.10
2018-09-22T16:29:34.139Z,17.40
2018-09-22T16:32:13.892Z,17.30
2018-09-22T16:34:43.036Z,17.50
2018-09-22T16:37:12.215Z,17.70
2018-09-22T16:39:41.401Z,17.60
2018-09-22T16:42:10.583Z,17.40
2018-09-22T16:44:40.093Z,17.50
2018-09-22T16:47:09.266Z,17.80
2018-09-22T16:49:38.496Z,17.40
2018-09-22T16:52:07.612Z,17.30
2018-09-22T16:54:36.808Z,17.30
2018-09-22T16:57:13.546Z,17.30
2018-09-22T16:59:42.750Z,17.30
2018-09-22T17:02:13.426Z,17.50
2018-09-22T17:04:42.650Z,17.50
2018-09-22T17:07:11.853Z,17.90
2018-09-22T17:09:41.083Z,17.80
2018-09-22T17:12:10.218Z,17.70
2018-09-22T17:14:39.364Z,18.00
2018-09-22T17:17:08.720Z,18.10
2018-09-22T17:22:38.000Z,18.40
2018-09-22T17:25:13.718Z,18.60
2018-09-22T17:27:42.901Z,18.60
2018-09-22T17:30:12.097Z,18.50
2018-09-22T17:32:41.229Z,18.40
2018-09-22T17:35:10.434Z,18.50
2018-09-22T17:37:39.644Z,18.40
2018-09-22T17:40:08.810Z,18.40
2018-09-22T17:42:37.976Z,18.40
2018-09-22T17:45:07.472Z,18.30
2018-09-22T17:47:37.561Z,18.40
2018-09-22T17:50:06.769Z,18.70
2018-09-22T17:52:35.926Z,18.70
2018-09-22T17:55:05.326Z,18.50
2018-09-22T17:57:34.480Z,18.50
2018-09-22T18:00:03.637Z,18.40
2018-09-22T18:02:32.807Z,18.10
2018-09-22T18:05:02.026Z,18.40
2018-09-22T18:07:31.197Z,18.20
2018-09-22T18:10:00.388Z,18.40
2018-09-22T18:12:29.542Z,18.20
2018-09-22T18:14:58.703Z,18.00
2018-09-22T18:20:28.794Z,18.20
2018-09-22T18:22:57.950Z,18.40
2018-09-22T18:25:27.095Z,17.60
2018-09-22T18:27:56.278Z,17.90
2018-09-22T18:30:25.434Z,17.60
2018-09-22T18:32:54.595Z,17.70
2018-09-22T18:35:23.805Z,18.20
2018-09-22T18:37:53.037Z,18.30
2018-09-22T18:45:15.194Z,17.90
2018-09-22T18:47:44.473Z,18.20
2018-09-22T18:50:23.988Z,18.40
2018-09-22T18:52:53.589Z,18.40
2018-09-22T18:55:22.835Z,18.50
2018-09-22T18:57:52.405Z,18.40
2018-09-22T19:00:21.714Z,18.40
2018-09-22T19:02:50.994Z,18.50
2018-09-22T19:05:20.475Z,18.50
2018-09-22T19:08:20.857Z,18.30
2018-09-22T19:11:13.283Z,18.30
2018-09-22T19:13:58.872Z,18.10
2018-09-22T19:16:49.013Z,17.60
2018-09-22T19:19:23.721Z,17.70
2018-09-22T19:21:57.678Z,18.10
2018-09-22T19:27:35.981Z,18.30
2018-09-22T19:30:12.445Z,18.40
2018-09-22T19:33:17.016Z,18.30
2018-09-22T20:35:10.941Z,17.70
2018-09-22T20:43:41.943Z,18.00
2018-09-22T20:46:14.498Z,17.80
2018-09-22T20:49:11.115Z,17.50
2018-09-22T20:51:40.462Z,17.40
2018-09-22T20:54:15.573Z,17.40
2018-09-22T21:03:13.213Z,17.80
2018-09-22T21:09:11.083Z,17.90
2018-09-22T21:11:41.055Z,18.00
2018-09-22T21:14:14.924Z,17.90
2018-09-22T21:17:11.147Z,18.00
2018-09-22T21:19:40.390Z,18.00
2018-09-22T21:22:15.807Z,18.00
2018-09-22T21:28:12.326Z,18.10
2018-09-22T21:34:11.018Z,18.00
2018-09-22T21:39:40.132Z,18.10
2018-09-22T21:42:15.217Z,18.00
2018-09-22T21:45:11.277Z,18.10
2018-09-22T21:47:40.472Z,18.00
2018-09-22T21:50:15.581Z,18.00
2018-09-22T21:52:44.773Z,18.00
2018-09-22T21:55:14.018Z,17.80
2018-09-22T21:57:43.240Z,17.80
2018-09-22T22:00:12.399Z,17.80
2018-09-22T22:02:41.626Z,17.80
2018-09-22T22:05:11.141Z,17.80
2018-09-22T22:07:40.289Z,17.80
2018-09-22T22:10:09.446Z,17.90
2018-09-22T22:12:38.644Z,17.90
2018-09-22T22:15:13.858Z,17.80
2018-09-22T22:17:43.041Z,17.80
2018-09-22T22:20:13.938Z,17.80
2018-09-22T22:22:43.209Z,17.80
2018-09-22T22:25:12.374Z,17.80
2018-09-22T22:27:41.521Z,17.80
2018-09-22T22:30:11.665Z,17.80
2018-09-22T22:32:40.813Z,17.80
2018-09-22T22:35:09.998Z,17.80
2018-09-22T22:37:39.297Z,17.80
2018-09-22T22:40:08.474Z,17.80
2018-09-22T22:42:37.656Z,17.70
2018-09-22T22:45:06.903Z,17.70
2018-09-22T22:50:39.060Z,17.80
2018-09-22T22:53:08.260Z,17.80
2018-09-22T22:55:37.431Z,17.80
2018-09-22T22:58:06.700Z,17.70
2018-09-22T23:00:35.865Z,17.80
2018-09-22T23:03:05.054Z,17.80
2018-09-22T23:05:34.249Z,17.70
2018-09-22T23:08:03.807Z,17.40
2018-09-22T23:10:33.049Z,17.60
2018-09-22T23:13:02.224Z,17.70
2018-09-22T23:15:31.395Z,17.60
2018-09-22T23:18:00.558Z,17.70
2018-09-22T23:20:29.745Z,17.70
2018-09-22T23:22:58.929Z,17.60
2018-09-22T23:25:28.138Z,17.60
2018-09-22T23:27:57.613Z,17.60
2018-09-22T23:30:26.782Z,17.60
2018-09-22T23:32:55.945Z,17.50
2018-09-22T23:35:25.305Z,17.50
2018-09-22T23:37:54.471Z,17.50
2018-09-22T23:40:23.907Z,17.50
2018-09-22T23:42:53.121Z,17.40
2018-09-22T23:45:22.282Z,17.40
2018-09-22T23:47:51.701Z,17.50
2018-09-22T23:50:20.899Z,17.40
2018-09-22T23:52:50.061Z,17.40
2018-09-22T23:55:19.250Z,17.40
2018-09-22T23:57:48.421Z,17.40
